sensor_id;sensor_type;location;lat;lon;timestamp;P1;durP1;ratioP1;P2;durP2;ratioP2
75963;SDS011;65820;44.726;37.764;2023-01-28T00:00:50;4.68;;;1.80;;
75963;SDS011;65820;44.726;37.764;2023-01-28T00:01:52;4.90;;;1.83;;
75963;SDS011;65820;44.726;37.764;2023-01-28T00:03:56;5.72;;;2.20;;
75963;SDS011;65820;44.726;37.764;2023-01-28T00:04:57;5.22;;;2.28;;
75963;SDS011;65820;44.726;37.764;2023-01-28T00:06:17;5.40;;;2.20;;
75963;SDS011;65820;44.726;37.764;2023-01-28T00:07:19;5.38;;;2.17;;
75963;SDS011;65820;44.726;37.764;2023-01-28T00:08:21;5.18;;;2.13;;
75963;SDS011;65820;44.726;37.764;2023-01-28T00:10:09;6.03;;;2.30;;
75963;SDS011;65820;44.726;37.764;2023-01-28T00:11:11;6.05;;;2.55;;
75963;SDS011;65820;44.726;37.764;2023-01-28T00:12:14;5.47;;;2.50;;
75963;SDS011;65820;44.726;37.764;2023-01-28T00:13:15;6.90;;;2.50;;
75963;SDS011;65820;44.726;37.764;2023-01-28T00:14:16;5.75;;;2.67;;
75963;SDS011;65820;44.726;37.764;2023-01-28T00:15:18;4.75;;;2.38;;
75963;SDS011;65820;44.726;37.764;2023-01-28T00:16:19;5.05;;;2.30;;
75963;SDS011;65820;44.726;37.764;2023-01-28T00:17:22;5.55;;;2.30;;
75963;SDS011;65820;44.726;37.764;2023-01-28T00:18:24;5.65;;;2.60;;
75963;SDS011;65820;44.726;37.764;2023-01-28T00:19:26;5.43;;;2.40;;
75963;SDS011;65820;44.726;37.764;2023-01-28T00:20:34;7.05;;;2.50;;
75963;SDS011;65820;44.726;37.764;2023-01-28T00:21:35;4.53;;;2.10;;
75963;SDS011;65820;44.726;37.764;2023-01-28T00:22:36;5.78;;;2.30;;
75963;SDS011;65820;44.726;37.764;2023-01-28T00:23:38;5.82;;;2.13;;
75963;SDS011;65820;44.726;37.764;2023-01-28T00:24:42;6.07;;;2.58;;
75963;SDS011;65820;44.726;37.764;2023-01-28T00:25:43;5.68;;;2.80;;
75963;SDS011;65820;44.726;37.764;2023-01-28T00:26:44;4.07;;;2.25;;
75963;SDS011;65820;44.726;37.764;2023-01-28T00:27:49;4.82;;;2.20;;
75963;SDS011;65820;44.726;37.764;2023-01-28T00:28:50;5.72;;;2.47;;
75963;SDS011;65820;44.726;37.764;2023-01-28T00:29:52;6.40;;;2.58;;
75963;SDS011;65820;44.726;37.764;2023-01-28T00:30:54;5.25;;;2.30;;
75963;SDS011;65820;44.726;37.764;2023-01-28T00:31:56;5.43;;;1.98;;
75963;SDS011;65820;44.726;37.764;2023-01-28T00:32:57;5.20;;;2.55;;
75963;SDS011;65820;44.726;37.764;2023-01-28T00:34:47;5.28;;;2.28;;
75963;SDS011;65820;44.726;37.764;2023-01-28T00:35:56;5.50;;;2.47;;
75963;SDS011;65820;44.726;37.764;2023-01-28T00:38:01;7.45;;;2.35;;
75963;SDS011;65820;44.726;37.764;2023-01-28T00:39:51;4.70;;;2.00;;
75963;SDS011;65820;44.726;37.764;2023-01-28T00:40:53;7.18;;;3.15;;
75963;SDS011;65820;44.726;37.764;2023-01-28T00:41:54;4.85;;;1.85;;
75963;SDS011;65820;44.726;37.764;2023-01-28T00:42:58;5.85;;;2.42;;
75963;SDS011;65820;44.726;37.764;2023-01-28T00:43:59;5.57;;;2.22;;
75963;SDS011;65820;44.726;37.764;2023-01-28T00:45:02;6.30;;;2.15;;
75963;SDS011;65820;44.726;37.764;2023-01-28T00:46:05;5.35;;;2.05;;
75963;SDS011;65820;44.726;37.764;2023-01-28T00:47:08;5.43;;;2.53;;
75963;SDS011;65820;44.726;37.764;2023-01-28T00:48:09;6.07;;;2.13;;
75963;SDS011;65820;44.726;37.764;2023-01-28T00:49:10;4.70;;;2.17;;
75963;SDS011;65820;44.726;37.764;2023-01-28T00:50:12;5.35;;;2.45;;
75963;SDS011;65820;44.726;37.764;2023-01-28T00:51:15;4.50;;;2.08;;
75963;SDS011;65820;44.726;37.764;2023-01-28T00:53:53;4.78;;;1.77;;
75963;SDS011;65820;44.726;37.764;2023-01-28T00:56:31;4.88;;;1.80;;
75963;SDS011;65820;44.726;37.764;2023-01-28T00:57:32;4.70;;;2.15;;
75963;SDS011;65820;44.726;37.764;2023-01-28T00:59:21;6.28;;;2.28;;
75963;SDS011;65820;44.726;37.764;2023-01-28T01:00:22;4.85;;;2.03;;
75963;SDS011;65820;44.726;37.764;2023-01-28T01:01:27;4.72;;;2.17;;
75963;SDS011;65820;44.726;37.764;2023-01-28T01:03:16;6.18;;;2.42;;
75963;SDS011;65820;44.726;37.764;2023-01-28T01:04:18;5.72;;;2.30;;
75963;SDS011;65820;44.726;37.764;2023-01-28T01:05:27;4.93;;;2.28;;
75963;SDS011;65820;44.726;37.764;2023-01-28T01:06:30;6.15;;;2.08;;
75963;SDS011;65820;44.726;37.764;2023-01-28T01:07:33;4.57;;;2.00;;
75963;SDS011;65820;44.726;37.764;2023-01-28T01:08:41;4.63;;;2.10;;
75963;SDS011;65820;44.726;37.764;2023-01-28T01:10:39;8.10;;;1.92;;
75963;SDS011;65820;44.726;37.764;2023-01-28T01:11:40;5.97;;;2.00;;
75963;SDS011;65820;44.726;37.764;2023-01-28T01:12:44;4.72;;;1.70;;
75963;SDS011;65820;44.726;37.764;2023-01-28T01:13:53;4.20;;;1.80;;
75963;SDS011;65820;44.726;37.764;2023-01-28T01:16:00;4.35;;;1.80;;
75963;SDS011;65820;44.726;37.764;2023-01-28T01:17:58;5.75;;;2.30;;
75963;SDS011;65820;44.726;37.764;2023-01-28T01:19:00;4.95;;;2.20;;
75963;SDS011;65820;44.726;37.764;2023-01-28T01:20:49;4.95;;;2.08;;
75963;SDS011;65820;44.726;37.764;2023-01-28T01:21:52;5.35;;;1.70;;
75963;SDS011;65820;44.726;37.764;2023-01-28T01:22:54;3.80;;;1.80;;
75963;SDS011;65820;44.726;37.764;2023-01-28T01:23:56;4.22;;;1.83;;
75963;SDS011;65820;44.726;37.764;2023-01-28T01:24:58;4.88;;;1.90;;
75963;SDS011;65820;44.726;37.764;2023-01-28T01:25:59;5.05;;;1.85;;
75963;SDS011;65820;44.726;37.764;2023-01-28T01:27:03;4.03;;;1.67;;
75963;SDS011;65820;44.726;37.764;2023-01-28T01:28:05;3.90;;;1.52;;
75963;SDS011;65820;44.726;37.764;2023-01-28T01:29:07;5.57;;;2.15;;
75963;SDS011;65820;44.726;37.764;2023-01-28T01:32:33;6.13;;;2.20;;
75963;SDS011;65820;44.726;37.764;2023-01-28T01:34:23;5.38;;;2.10;;
75963;SDS011;65820;44.726;37.764;2023-01-28T01:35:24;4.97;;;2.03;;
75963;SDS011;65820;44.726;37.764;2023-01-28T01:37:14;5.20;;;1.90;;
75963;SDS011;65820;44.726;37.764;2023-01-28T01:39:04;10.43;;;2.38;;
75963;SDS011;65820;44.726;37.764;2023-01-28T01:40:58;5.10;;;2.00;;
75963;SDS011;65820;44.726;37.764;2023-01-28T01:42:01;6.50;;;1.80;;
75963;SDS011;65820;44.726;37.764;2023-01-28T01:43:09;8.45;;;2.20;;
75963;SDS011;65820;44.726;37.764;2023-01-28T01:45:56;4.07;;;1.80;;
75963;SDS011;65820;44.726;37.764;2023-01-28T01:47:00;5.55;;;1.73;;
75963;SDS011;65820;44.726;37.764;2023-01-28T01:48:05;5.18;;;1.80;;
75963;SDS011;65820;44.726;37.764;2023-01-28T01:49:21;7.63;;;2.75;;
75963;SDS011;65820;44.726;37.764;2023-01-28T01:51:31;5.07;;;1.92;;
75963;SDS011;65820;44.726;37.764;2023-01-28T01:52:34;6.97;;;1.98;;
75963;SDS011;65820;44.726;37.764;2023-01-28T01:53:36;3.47;;;1.70;;
75963;SDS011;65820;44.726;37.764;2023-01-28T01:54:46;4.65;;;1.85;;
75963;SDS011;65820;44.726;37.764;2023-01-28T01:55:49;5.38;;;1.60;;
75963;SDS011;65820;44.726;37.764;2023-01-28T01:56:54;5.90;;;2.28;;
75963;SDS011;65820;44.726;37.764;2023-01-28T01:59:01;4.32;;;1.75;;
75963;SDS011;65820;44.726;37.764;2023-01-28T02:00:06;5.13;;;1.92;;
75963;SDS011;65820;44.726;37.764;2023-01-28T02:01:21;5.57;;;1.77;;
75963;SDS011;65820;44.726;37.764;2023-01-28T02:02:25;6.70;;;2.10;;
75963;SDS011;65820;44.726;37.764;2023-01-28T02:03:28;5.15;;;1.83;;
75963;SDS011;65820;44.726;37.764;2023-01-28T02:05:42;5.25;;;2.03;;
75963;SDS011;65820;44.726;37.764;2023-01-28T02:06:43;5.88;;;1.90;;
75963;SDS011;65820;44.726;37.764;2023-01-28T02:07:46;5.53;;;1.85;;
75963;SDS011;65820;44.726;37.764;2023-01-28T02:08:54;5.55;;;2.15;;
75963;SDS011;65820;44.726;37.764;2023-01-28T02:10:55;4.60;;;1.90;;
75963;SDS011;65820;44.726;37.764;2023-01-28T02:12:02;4.25;;;1.70;;
75963;SDS011;65820;44.726;37.764;2023-01-28T02:13:08;6.57;;;2.20;;
75963;SDS011;65820;44.726;37.764;2023-01-28T02:14:09;3.95;;;1.60;;
75963;SDS011;65820;44.726;37.764;2023-01-28T02:15:12;5.47;;;1.73;;
75963;SDS011;65820;44.726;37.764;2023-01-28T02:16:17;4.90;;;1.75;;
75963;SDS011;65820;44.726;37.764;2023-01-28T02:17:19;4.78;;;1.95;;
75963;SDS011;65820;44.726;37.764;2023-01-28T02:18:20;4.53;;;1.70;;
75963;SDS011;65820;44.726;37.764;2023-01-28T02:19:21;4.30;;;1.60;;
75963;SDS011;65820;44.726;37.764;2023-01-28T02:21:29;5.82;;;1.98;;
75963;SDS011;65820;44.726;37.764;2023-01-28T02:27:30;3.97;;;1.75;;
75963;SDS011;65820;44.726;37.764;2023-01-28T02:29:04;4.63;;;1.60;;
75963;SDS011;65820;44.726;37.764;2023-01-28T02:30:12;4.45;;;1.60;;
75963;SDS011;65820;44.726;37.764;2023-01-28T02:31:24;4.60;;;1.63;;
75963;SDS011;65820;44.726;37.764;2023-01-28T02:32:35;5.15;;;1.80;;
75963;SDS011;65820;44.726;37.764;2023-01-28T02:34:47;3.40;;;1.38;;
75963;SDS011;65820;44.726;37.764;2023-01-28T02:35:53;5.93;;;1.75;;
75963;SDS011;65820;44.726;37.764;2023-01-28T02:36:59;5.82;;;1.90;;
75963;SDS011;65820;44.726;37.764;2023-01-28T02:38:19;5.68;;;1.70;;
75963;SDS011;65820;44.726;37.764;2023-01-28T02:39:34;5.03;;;1.95;;
75963;SDS011;65820;44.726;37.764;2023-01-28T02:40:41;5.72;;;1.75;;
75963;SDS011;65820;44.726;37.764;2023-01-28T02:42:13;6.43;;;1.80;;
75963;SDS011;65820;44.726;37.764;2023-01-28T02:43:28;4.97;;;1.70;;
75963;SDS011;65820;44.726;37.764;2023-01-28T02:44:37;4.25;;;1.73;;
75963;SDS011;65820;44.726;37.764;2023-01-28T02:45:38;5.85;;;1.73;;
75963;SDS011;65820;44.726;37.764;2023-01-28T02:46:58;4.70;;;1.77;;
75963;SDS011;65820;44.726;37.764;2023-01-28T02:48:18;4.38;;;1.50;;
75963;SDS011;65820;44.726;37.764;2023-01-28T02:49:27;5.72;;;1.77;;
75963;SDS011;65820;44.726;37.764;2023-01-28T02:50:35;3.72;;;1.73;;
75963;SDS011;65820;44.726;37.764;2023-01-28T02:52:03;5.45;;;1.77;;
75963;SDS011;65820;44.726;37.764;2023-01-28T02:53:32;4.10;;;1.30;;
75963;SDS011;65820;44.726;37.764;2023-01-28T02:57:48;3.72;;;1.52;;
75963;SDS011;65820;44.726;37.764;2023-01-28T03:00:43;5.45;;;2.00;;
75963;SDS011;65820;44.726;37.764;2023-01-28T03:04:42;4.13;;;1.52;;
75963;SDS011;65820;44.726;37.764;2023-01-28T03:06:05;5.30;;;1.77;;
75963;SDS011;65820;44.726;37.764;2023-01-28T03:09:33;5.20;;;1.90;;
75963;SDS011;65820;44.726;37.764;2023-01-28T03:10:39;3.83;;;1.48;;
75963;SDS011;65820;44.726;37.764;2023-01-28T03:11:41;4.63;;;1.85;;
75963;SDS011;65820;44.726;37.764;2023-01-28T03:13:05;5.40;;;1.75;;
75963;SDS011;65820;44.726;37.764;2023-01-28T03:14:25;4.68;;;2.30;;
75963;SDS011;65820;44.726;37.764;2023-01-28T03:15:46;3.92;;;1.60;;
75963;SDS011;65820;44.726;37.764;2023-01-28T03:17:07;5.22;;;1.70;;
75963;SDS011;65820;44.726;37.764;2023-01-28T03:20:27;4.43;;;1.67;;
75963;SDS011;65820;44.726;37.764;2023-01-28T03:21:53;6.47;;;1.65;;
75963;SDS011;65820;44.726;37.764;2023-01-28T03:23:16;3.88;;;1.92;;
75963;SDS011;65820;44.726;37.764;2023-01-28T03:24:43;4.70;;;1.50;;
75963;SDS011;65820;44.726;37.764;2023-01-28T03:26:07;6.50;;;1.60;;
75963;SDS011;65820;44.726;37.764;2023-01-28T03:29:06;4.68;;;1.73;;
75963;SDS011;65820;44.726;37.764;2023-01-28T03:30:50;4.03;;;1.50;;
75963;SDS011;65820;44.726;37.764;2023-01-28T03:32:23;4.47;;;1.65;;
75963;SDS011;65820;44.726;37.764;2023-01-28T03:33:45;4.95;;;2.00;;
75963;SDS011;65820;44.726;37.764;2023-01-28T03:35:06;5.45;;;1.80;;
75963;SDS011;65820;44.726;37.764;2023-01-28T03:36:28;5.05;;;1.80;;
75963;SDS011;65820;44.726;37.764;2023-01-28T03:38:08;4.40;;;1.80;;
75963;SDS011;65820;44.726;37.764;2023-01-28T03:39:26;4.30;;;1.73;;
75963;SDS011;65820;44.726;37.764;2023-01-28T03:40:30;4.50;;;1.67;;
75963;SDS011;65820;44.726;37.764;2023-01-28T03:41:33;5.43;;;2.30;;
75963;SDS011;65820;44.726;37.764;2023-01-28T03:42:35;4.85;;;1.88;;
75963;SDS011;65820;44.726;37.764;2023-01-28T03:44:34;4.88;;;1.63;;
75963;SDS011;65820;44.726;37.764;2023-01-28T03:45:54;3.95;;;1.70;;
75963;SDS011;65820;44.726;37.764;2023-01-28T03:46:58;4.45;;;1.65;;
75963;SDS011;65820;44.726;37.764;2023-01-28T03:48:00;4.35;;;1.42;;
75963;SDS011;65820;44.726;37.764;2023-01-28T03:49:01;4.43;;;1.63;;
75963;SDS011;65820;44.726;37.764;2023-01-28T03:50:02;6.93;;;1.92;;
75963;SDS011;65820;44.726;37.764;2023-01-28T03:51:12;4.88;;;1.92;;
75963;SDS011;65820;44.726;37.764;2023-01-28T03:52:19;5.47;;;1.92;;
75963;SDS011;65820;44.726;37.764;2023-01-28T03:53:22;3.95;;;1.63;;
75963;SDS011;65820;44.726;37.764;2023-01-28T03:54:25;3.08;;;1.55;;
75963;SDS011;65820;44.726;37.764;2023-01-28T03:55:27;3.85;;;1.60;;
75963;SDS011;65820;44.726;37.764;2023-01-28T03:56:28;3.28;;;1.33;;
75963;SDS011;65820;44.726;37.764;2023-01-28T03:57:33;4.72;;;1.55;;
75963;SDS011;65820;44.726;37.764;2023-01-28T03:58:34;5.30;;;1.70;;
75963;SDS011;65820;44.726;37.764;2023-01-28T03:59:57;5.72;;;1.58;;
75963;SDS011;65820;44.726;37.764;2023-01-28T04:00:58;3.38;;;1.30;;
75963;SDS011;65820;44.726;37.764;2023-01-28T04:02:00;5.00;;;1.83;;
75963;SDS011;65820;44.726;37.764;2023-01-28T04:03:06;5.47;;;1.85;;
75963;SDS011;65820;44.726;37.764;2023-01-28T04:04:16;4.70;;;1.60;;
75963;SDS011;65820;44.726;37.764;2023-01-28T04:05:25;3.28;;;1.45;;
75963;SDS011;65820;44.726;37.764;2023-01-28T04:06:34;4.38;;;1.60;;
75963;SDS011;65820;44.726;37.764;2023-01-28T04:08:04;5.43;;;1.85;;
75963;SDS011;65820;44.726;37.764;2023-01-28T04:09:20;5.68;;;1.52;;
75963;SDS011;65820;44.726;37.764;2023-01-28T04:10:24;5.13;;;1.70;;
75963;SDS011;65820;44.726;37.764;2023-01-28T04:11:35;4.95;;;1.65;;
75963;SDS011;65820;44.726;37.764;2023-01-28T04:12:39;4.25;;;1.60;;
75963;SDS011;65820;44.726;37.764;2023-01-28T04:13:41;4.15;;;1.52;;
75963;SDS011;65820;44.726;37.764;2023-01-28T04:14:43;3.95;;;1.77;;
75963;SDS011;65820;44.726;37.764;2023-01-28T04:15:54;4.65;;;1.63;;
75963;SDS011;65820;44.726;37.764;2023-01-28T04:16:56;3.55;;;1.40;;
75963;SDS011;65820;44.726;37.764;2023-01-28T04:17:59;4.22;;;1.38;;
75963;SDS011;65820;44.726;37.764;2023-01-28T04:19:03;5.43;;;1.70;;
75963;SDS011;65820;44.726;37.764;2023-01-28T04:20:05;4.03;;;1.30;;
75963;SDS011;65820;44.726;37.764;2023-01-28T04:21:07;3.50;;;1.38;;
75963;SDS011;65820;44.726;37.764;2023-01-28T04:22:09;4.25;;;1.40;;
75963;SDS011;65820;44.726;37.764;2023-01-28T04:23:15;3.45;;;1.50;;
75963;SDS011;65820;44.726;37.764;2023-01-28T04:24:16;3.15;;;1.35;;
75963;SDS011;65820;44.726;37.764;2023-01-28T04:25:18;4.35;;;1.55;;
75963;SDS011;65820;44.726;37.764;2023-01-28T04:26:19;3.65;;;1.40;;
75963;SDS011;65820;44.726;37.764;2023-01-28T04:27:20;4.40;;;1.63;;
75963;SDS011;65820;44.726;37.764;2023-01-28T04:28:23;4.07;;;1.60;;
75963;SDS011;65820;44.726;37.764;2023-01-28T04:29:24;3.30;;;1.30;;
75963;SDS011;65820;44.726;37.764;2023-01-28T04:30:28;4.93;;;1.50;;
75963;SDS011;65820;44.726;37.764;2023-01-28T04:31:50;4.75;;;1.77;;
75963;SDS011;65820;44.726;37.764;2023-01-28T04:33:17;2.80;;;1.23;;
75963;SDS011;65820;44.726;37.764;2023-01-28T04:34:37;3.92;;;1.48;;
75963;SDS011;65820;44.726;37.764;2023-01-28T04:35:48;5.13;;;1.52;;
75963;SDS011;65820;44.726;37.764;2023-01-28T04:37:08;5.63;;;1.50;;
75963;SDS011;65820;44.726;37.764;2023-01-28T04:38:18;3.92;;;1.52;;
75963;SDS011;65820;44.726;37.764;2023-01-28T04:39:41;4.88;;;1.67;;
75963;SDS011;65820;44.726;37.764;2023-01-28T04:41:12;4.70;;;1.50;;
75963;SDS011;65820;44.726;37.764;2023-01-28T04:42:13;4.53;;;1.55;;
75963;SDS011;65820;44.726;37.764;2023-01-28T04:43:40;4.85;;;1.33;;
75963;SDS011;65820;44.726;37.764;2023-01-28T04:45:59;5.45;;;1.48;;
75963;SDS011;65820;44.726;37.764;2023-01-28T04:47:26;3.97;;;1.30;;
75963;SDS011;65820;44.726;37.764;2023-01-28T04:48:50;3.78;;;1.30;;
75963;SDS011;65820;44.726;37.764;2023-01-28T04:50:12;3.60;;;1.30;;
75963;SDS011;65820;44.726;37.764;2023-01-28T04:51:39;5.43;;;1.60;;
75963;SDS011;65820;44.726;37.764;2023-01-28T04:53:53;4.53;;;1.42;;
75963;SDS011;65820;44.726;37.764;2023-01-28T04:55:07;4.72;;;1.40;;
75963;SDS011;65820;44.726;37.764;2023-01-28T04:56:10;5.15;;;2.03;;
75963;SDS011;65820;44.726;37.764;2023-01-28T04:57:11;5.25;;;1.80;;
75963;SDS011;65820;44.726;37.764;2023-01-28T04:58:13;5.70;;;1.60;;
75963;SDS011;65820;44.726;37.764;2023-01-28T05:00:18;4.28;;;1.25;;
75963;SDS011;65820;44.726;37.764;2023-01-28T05:01:22;4.82;;;1.35;;
75963;SDS011;65820;44.726;37.764;2023-01-28T05:02:24;3.78;;;1.35;;
75963;SDS011;65820;44.726;37.764;2023-01-28T05:03:26;6.65;;;1.60;;
75963;SDS011;65820;44.726;37.764;2023-01-28T05:04:28;5.97;;;1.60;;
75963;SDS011;65820;44.726;37.764;2023-01-28T05:05:30;3.65;;;1.40;;
75963;SDS011;65820;44.726;37.764;2023-01-28T05:06:37;4.78;;;1.30;;
75963;SDS011;65820;44.726;37.764;2023-01-28T05:07:59;4.43;;;1.25;;
75963;SDS011;65820;44.726;37.764;2023-01-28T05:09:00;5.07;;;1.35;;
75963;SDS011;65820;44.726;37.764;2023-01-28T05:10:07;4.60;;;1.50;;
75963;SDS011;65820;44.726;37.764;2023-01-28T05:11:10;3.67;;;1.42;;
75963;SDS011;65820;44.726;37.764;2023-01-28T05:12:12;3.63;;;1.35;;
75963;SDS011;65820;44.726;37.764;2023-01-28T05:13:14;5.07;;;1.50;;
75963;SDS011;65820;44.726;37.764;2023-01-28T05:14:15;3.88;;;1.50;;
75963;SDS011;65820;44.726;37.764;2023-01-28T05:15:25;3.72;;;1.33;;
75963;SDS011;65820;44.726;37.764;2023-01-28T05:17:23;4.07;;;1.33;;
75963;SDS011;65820;44.726;37.764;2023-01-28T05:18:25;4.88;;;1.30;;
75963;SDS011;65820;44.726;37.764;2023-01-28T05:19:52;4.50;;;1.52;;
75963;SDS011;65820;44.726;37.764;2023-01-28T05:20:57;2.88;;;1.05;;
75963;SDS011;65820;44.726;37.764;2023-01-28T05:21:58;3.75;;;1.35;;
75963;SDS011;65820;44.726;37.764;2023-01-28T05:23:05;3.83;;;1.45;;
75963;SDS011;65820;44.726;37.764;2023-01-28T05:24:36;4.20;;;1.42;;
75963;SDS011;65820;44.726;37.764;2023-01-28T05:25:37;3.90;;;1.35;;
75963;SDS011;65820;44.726;37.764;2023-01-28T05:26:39;4.65;;;1.42;;
75963;SDS011;65820;44.726;37.764;2023-01-28T05:27:40;3.58;;;1.30;;
75963;SDS011;65820;44.726;37.764;2023-01-28T05:29:30;4.88;;;1.83;;
75963;SDS011;65820;44.726;37.764;2023-01-28T05:30:31;4.50;;;1.65;;
75963;SDS011;65820;44.726;37.764;2023-01-28T05:31:32;3.72;;;1.67;;
75963;SDS011;65820;44.726;37.764;2023-01-28T05:32:34;3.67;;;1.35;;
75963;SDS011;65820;44.726;37.764;2023-01-28T05:33:35;4.03;;;1.55;;
75963;SDS011;65820;44.726;37.764;2023-01-28T05:35:48;5.57;;;1.85;;
75963;SDS011;65820;44.726;37.764;2023-01-28T05:36:51;3.33;;;1.60;;
75963;SDS011;65820;44.726;37.764;2023-01-28T05:38:12;4.78;;;1.75;;
75963;SDS011;65820;44.726;37.764;2023-01-28T05:39:13;4.38;;;1.65;;
75963;SDS011;65820;44.726;37.764;2023-01-28T05:40:15;3.85;;;1.50;;
75963;SDS011;65820;44.726;37.764;2023-01-28T05:42:05;4.00;;;1.52;;
75963;SDS011;65820;44.726;37.764;2023-01-28T05:45:33;4.22;;;1.25;;
75963;SDS011;65820;44.726;37.764;2023-01-28T05:46:46;4.60;;;1.50;;
75963;SDS011;65820;44.726;37.764;2023-01-28T05:48:06;3.63;;;1.23;;
75963;SDS011;65820;44.726;37.764;2023-01-28T05:49:17;3.28;;;1.48;;
75963;SDS011;65820;44.726;37.764;2023-01-28T05:50:37;3.53;;;1.40;;
75963;SDS011;65820;44.726;37.764;2023-01-28T05:51:48;4.00;;;1.30;;
75963;SDS011;65820;44.726;37.764;2023-01-28T05:52:54;5.43;;;1.40;;
75963;SDS011;65820;44.726;37.764;2023-01-28T05:54:00;2.75;;;1.10;;
75963;SDS011;65820;44.726;37.764;2023-01-28T05:55:02;3.78;;;1.50;;
75963;SDS011;65820;44.726;37.764;2023-01-28T05:56:03;3.75;;;1.42;;
75963;SDS011;65820;44.726;37.764;2023-01-28T05:57:09;6.53;;;1.40;;
75963;SDS011;65820;44.726;37.764;2023-01-28T05:58:10;4.80;;;1.83;;
75963;SDS011;65820;44.726;37.764;2023-01-28T05:59:12;4.03;;;1.50;;
75963;SDS011;65820;44.726;37.764;2023-01-28T06:00:15;4.65;;;1.30;;
75963;SDS011;65820;44.726;37.764;2023-01-28T06:01:18;4.80;;;1.50;;
75963;SDS011;65820;44.726;37.764;2023-01-28T06:02:25;5.78;;;2.05;;
75963;SDS011;65820;44.726;37.764;2023-01-28T06:03:33;3.35;;;1.25;;
75963;SDS011;65820;44.726;37.764;2023-01-28T06:04:35;6.40;;;1.70;;
75963;SDS011;65820;44.726;37.764;2023-01-28T06:05:37;3.03;;;1.15;;
75963;SDS011;65820;44.726;37.764;2023-01-28T06:06:38;4.63;;;1.60;;
75963;SDS011;65820;44.726;37.764;2023-01-28T06:07:43;3.33;;;1.25;;
75963;SDS011;65820;44.726;37.764;2023-01-28T06:08:45;5.55;;;1.90;;
75963;SDS011;65820;44.726;37.764;2023-01-28T06:09:50;3.65;;;1.48;;
75963;SDS011;65820;44.726;37.764;2023-01-28T06:10:54;6.32;;;1.55;;
75963;SDS011;65820;44.726;37.764;2023-01-28T06:11:57;5.38;;;1.67;;
75963;SDS011;65820;44.726;37.764;2023-01-28T06:12:59;4.38;;;1.50;;
75963;SDS011;65820;44.726;37.764;2023-01-28T06:14:14;3.30;;;1.10;;
75963;SDS011;65820;44.726;37.764;2023-01-28T06:15:38;3.90;;;1.65;;
75963;SDS011;65820;44.726;37.764;2023-01-28T06:16:58;4.38;;;1.65;;
75963;SDS011;65820;44.726;37.764;2023-01-28T06:18:02;3.97;;;1.50;;
75963;SDS011;65820;44.726;37.764;2023-01-28T06:19:07;4.43;;;1.70;;
75963;SDS011;65820;44.726;37.764;2023-01-28T06:20:08;3.92;;;1.58;;
75963;SDS011;65820;44.726;37.764;2023-01-28T06:21:12;5.25;;;1.75;;
75963;SDS011;65820;44.726;37.764;2023-01-28T06:22:14;4.65;;;1.52;;
75963;SDS011;65820;44.726;37.764;2023-01-28T06:23:16;3.53;;;1.30;;
75963;SDS011;65820;44.726;37.764;2023-01-28T06:24:17;4.28;;;1.55;;
75963;SDS011;65820;44.726;37.764;2023-01-28T06:25:19;3.42;;;1.35;;
75963;SDS011;65820;44.726;37.764;2023-01-28T06:26:21;4.68;;;1.75;;
75963;SDS011;65820;44.726;37.764;2023-01-28T06:27:25;4.28;;;1.60;;
75963;SDS011;65820;44.726;37.764;2023-01-28T06:28:27;5.03;;;1.45;;
75963;SDS011;65820;44.726;37.764;2023-01-28T06:29:28;4.28;;;1.73;;
75963;SDS011;65820;44.726;37.764;2023-01-28T06:30:29;4.20;;;1.45;;
75963;SDS011;65820;44.726;37.764;2023-01-28T06:31:31;4.15;;;1.35;;
75963;SDS011;65820;44.726;37.764;2023-01-28T06:32:32;4.32;;;1.80;;
75963;SDS011;65820;44.726;37.764;2023-01-28T06:33:34;4.60;;;1.48;;
75963;SDS011;65820;44.726;37.764;2023-01-28T06:34:35;3.78;;;1.65;;
75963;SDS011;65820;44.726;37.764;2023-01-28T06:35:39;3.30;;;1.40;;
75963;SDS011;65820;44.726;37.764;2023-01-28T06:36:40;3.92;;;1.63;;
75963;SDS011;65820;44.726;37.764;2023-01-28T06:37:42;4.57;;;1.60;;
75963;SDS011;65820;44.726;37.764;2023-01-28T06:38:44;3.92;;;1.52;;
75963;SDS011;65820;44.726;37.764;2023-01-28T06:39:46;5.78;;;1.52;;
75963;SDS011;65820;44.726;37.764;2023-01-28T06:40:51;3.28;;;1.30;;
75963;SDS011;65820;44.726;37.764;2023-01-28T06:41:55;2.78;;;1.30;;
75963;SDS011;65820;44.726;37.764;2023-01-28T06:42:56;4.30;;;1.25;;
75963;SDS011;65820;44.726;37.764;2023-01-28T06:43:58;3.58;;;1.30;;
75963;SDS011;65820;44.726;37.764;2023-01-28T06:44:59;4.78;;;1.67;;
75963;SDS011;65820;44.726;37.764;2023-01-28T06:46:00;4.25;;;1.50;;
75963;SDS011;65820;44.726;37.764;2023-01-28T06:47:02;5.43;;;1.48;;
75963;SDS011;65820;44.726;37.764;2023-01-28T06:48:03;4.00;;;1.33;;
75963;SDS011;65820;44.726;37.764;2023-01-28T06:49:05;3.08;;;1.33;;
75963;SDS011;65820;44.726;37.764;2023-01-28T06:50:07;5.43;;;1.13;;
75963;SDS011;65820;44.726;37.764;2023-01-28T06:51:08;5.07;;;1.63;;
75963;SDS011;65820;44.726;37.764;2023-01-28T06:52:10;4.22;;;1.67;;
75963;SDS011;65820;44.726;37.764;2023-01-28T06:53:11;3.45;;;1.50;;
75963;SDS011;65820;44.726;37.764;2023-01-28T06:54:12;3.35;;;1.35;;
75963;SDS011;65820;44.726;37.764;2023-01-28T06:55:16;4.03;;;1.50;;
75963;SDS011;65820;44.726;37.764;2023-01-28T06:56:17;3.47;;;1.48;;
75963;SDS011;65820;44.726;37.764;2023-01-28T06:57:18;6.88;;;1.27;;
75963;SDS011;65820;44.726;37.764;2023-01-28T06:58:20;4.45;;;1.23;;
75963;SDS011;65820;44.726;37.764;2023-01-28T06:59:21;3.42;;;1.20;;
75963;SDS011;65820;44.726;37.764;2023-01-28T07:00:22;4.47;;;1.38;;
75963;SDS011;65820;44.726;37.764;2023-01-28T07:01:24;3.38;;;1.23;;
75963;SDS011;65820;44.726;37.764;2023-01-28T07:02:25;10.07;;;1.60;;
75963;SDS011;65820;44.726;37.764;2023-01-28T07:03:27;3.42;;;1.20;;
75963;SDS011;65820;44.726;37.764;2023-01-28T07:04:28;5.20;;;1.33;;
75963;SDS011;65820;44.726;37.764;2023-01-28T07:06:17;4.90;;;1.17;;
75963;SDS011;65820;44.726;37.764;2023-01-28T07:07:19;6.93;;;1.75;;
75963;SDS011;65820;44.726;37.764;2023-01-28T07:08:20;4.57;;;1.30;;
75963;SDS011;65820;44.726;37.764;2023-01-28T07:09:21;4.07;;;1.20;;
75963;SDS011;65820;44.726;37.764;2023-01-28T07:10:23;4.53;;;1.30;;
75963;SDS011;65820;44.726;37.764;2023-01-28T07:11:24;3.78;;;1.38;;
75963;SDS011;65820;44.726;37.764;2023-01-28T07:12:25;4.93;;;1.40;;
75963;SDS011;65820;44.726;37.764;2023-01-28T07:13:27;4.65;;;1.42;;
75963;SDS011;65820;44.726;37.764;2023-01-28T07:14:28;3.28;;;1.13;;
75963;SDS011;65820;44.726;37.764;2023-01-28T07:15:30;5.40;;;1.60;;
75963;SDS011;65820;44.726;37.764;2023-01-28T07:16:31;3.65;;;1.42;;
75963;SDS011;65820;44.726;37.764;2023-01-28T07:17:34;3.97;;;1.52;;
75963;SDS011;65820;44.726;37.764;2023-01-28T07:18:38;4.80;;;1.40;;
75963;SDS011;65820;44.726;37.764;2023-01-28T07:19:40;5.80;;;1.70;;
75963;SDS011;65820;44.726;37.764;2023-01-28T07:20:41;4.70;;;1.55;;
75963;SDS011;65820;44.726;37.764;2023-01-28T07:21:42;3.38;;;1.10;;
75963;SDS011;65820;44.726;37.764;2023-01-28T07:22:44;4.20;;;1.33;;
75963;SDS011;65820;44.726;37.764;2023-01-28T07:23:46;4.57;;;1.50;;
75963;SDS011;65820;44.726;37.764;2023-01-28T07:24:47;6.07;;;1.55;;
75963;SDS011;65820;44.726;37.764;2023-01-28T07:25:52;6.60;;;1.42;;
75963;SDS011;65820;44.726;37.764;2023-01-28T07:26:53;6.65;;;1.65;;
75963;SDS011;65820;44.726;37.764;2023-01-28T07:27:55;5.20;;;1.52;;
75963;SDS011;65820;44.726;37.764;2023-01-28T07:29:02;4.70;;;1.58;;
75963;SDS011;65820;44.726;37.764;2023-01-28T07:30:04;5.32;;;1.23;;